Terminal Aerodrome Forecast
Issued by NWS

Current Version | Previous Version | Text Only | Print | Product List | Glossary On
Versions: 1 2 3 4 5 6 7 8 9 10 11 12 13 14 15
000
FTUS42 KMLB 231700
TAFISM
TAF
KISM 231722Z 2318/2418 10009KT P6SM -SHRA BKN025 BKN060
      TEMPO 2318/2320 3SM TSRA BKN020CB BKN040
     FM232100 20005KT P6SM VCSH SCT030 BKN070
     FM240200 16003KT P6SM SCT040 BKN140
      TEMPO 2409/2412 5SM BR FEW005=

USA.gov is the U.S. government's official web portal to all federal, state and local government web resources and services.